createdAt,value
2022-10-05T00:00:21.664Z,7.43
2022-10-05T00:01:21.687Z,7.46
2022-10-05T00:02:21.645Z,7.49
2022-10-05T00:03:21.620Z,7.50
2022-10-05T00:04:21.994Z,7.55
2022-10-05T00:05:21.652Z,7.57
2022-10-05T00:06:21.592Z,7.60
2022-10-05T00:07:21.561Z,7.64
2022-10-05T00:08:21.554Z,7.58
2022-10-05T00:09:21.970Z,7.45
2022-10-05T00:10:21.532Z,7.39
2022-10-05T00:11:21.511Z,7.39
2022-10-05T00:12:21.511Z,7.43
2022-10-05T00:13:21.489Z,7.49
2022-10-05T00:14:21.475Z,7.58
2022-10-05T00:15:21.900Z,7.68
2022-10-05T00:16:21.521Z,7.74
2022-10-05T00:17:21.438Z,7.79
2022-10-05T00:18:21.427Z,7.80
2022-10-05T00:19:21.729Z,7.83
2022-10-05T00:20:21.411Z,7.80
2022-10-05T00:21:21.380Z,7.83
2022-10-05T00:22:21.501Z,7.82
2022-10-05T00:23:21.366Z,7.77
2022-10-05T00:24:21.773Z,7.75
2022-10-05T00:25:21.338Z,7.71
2022-10-05T00:26:21.317Z,7.69
2022-10-05T00:27:21.406Z,7.68
2022-10-05T00:28:21.364Z,7.68
2022-10-05T00:29:21.667Z,7.69
2022-10-05T00:30:21.266Z,7.74
2022-10-05T00:31:21.328Z,7.80
2022-10-05T00:32:21.322Z,7.82
2022-10-05T00:33:21.223Z,7.83
2022-10-05T00:34:21.535Z,7.82
2022-10-05T00:35:21.204Z,7.80
2022-10-05T00:36:21.188Z,7.79
2022-10-05T00:37:21.165Z,7.74
2022-10-05T00:38:21.161Z,7.69
2022-10-05T00:39:21.458Z,7.67
2022-10-05T00:40:21.133Z,7.63
2022-10-05T00:41:21.117Z,7.60
2022-10-05T00:42:21.110Z,7.57
2022-10-05T00:43:21.100Z,7.52
2022-10-05T00:44:28.464Z,7.49
2022-10-05T00:45:28.094Z,7.50
2022-10-05T00:46:28.072Z,7.52
2022-10-05T00:47:28.045Z,7.53
2022-10-05T00:48:28.021Z,7.55
2022-10-05T00:49:28.360Z,7.60
2022-10-05T00:50:28.004Z,7.60
2022-10-05T00:51:27.993Z,7.61
2022-10-05T00:52:27.979Z,7.58
2022-10-05T00:53:27.968Z,7.53
2022-10-05T00:54:28.374Z,7.53
2022-10-05T00:55:27.935Z,7.57
2022-10-05T00:56:27.938Z,7.53
2022-10-05T00:57:27.906Z,7.50
2022-10-05T00:58:27.906Z,7.46
2022-10-05T00:59:28.291Z,7.42
2022-10-05T01:00:20.861Z,7.31
2022-10-05T01:01:20.877Z,7.30
2022-10-05T01:02:20.915Z,7.28
2022-10-05T01:03:20.827Z,7.27
2022-10-05T01:04:21.192Z,7.24
2022-10-05T01:05:20.800Z,7.21
2022-10-05T01:06:20.800Z,7.21
2022-10-05T01:07:20.779Z,7.17
2022-10-05T01:08:20.777Z,7.21
2022-10-05T01:09:21.225Z,7.20
2022-10-05T01:10:20.745Z,7.17
2022-10-05T01:11:20.749Z,7.16
2022-10-05T01:12:20.720Z,7.15
2022-10-05T01:13:20.717Z,7.13
2022-10-05T01:14:21.126Z,7.09
2022-10-05T01:15:20.679Z,7.03
2022-10-05T01:16:20.700Z,6.99
2022-10-05T01:17:20.655Z,6.95
2022-10-05T01:18:20.656Z,6.91
2022-10-05T01:19:20.986Z,6.88
2022-10-05T01:20:20.623Z,6.84
2022-10-05T01:21:20.616Z,6.76
2022-10-05T01:22:20.593Z,6.71
2022-10-05T01:23:20.584Z,6.73
2022-10-05T01:24:20.956Z,6.73
2022-10-05T01:25:20.554Z,6.76
2022-10-05T01:26:20.542Z,6.79
2022-10-05T01:27:20.521Z,6.81
2022-10-05T01:28:20.556Z,6.85
2022-10-05T01:29:20.824Z,6.89
2022-10-05T01:30:20.482Z,6.89
2022-10-05T01:31:20.517Z,6.91
2022-10-05T01:32:20.481Z,6.89
2022-10-05T01:33:20.448Z,6.81
2022-10-05T01:34:20.862Z,6.81
2022-10-05T01:35:20.426Z,6.81
2022-10-05T01:36:20.410Z,6.80
2022-10-05T01:37:20.392Z,6.84
2022-10-05T01:38:20.379Z,6.84
2022-10-05T01:39:20.788Z,6.77
2022-10-05T01:40:20.358Z,6.71
2022-10-05T01:41:20.341Z,6.64
2022-10-05T01:42:20.328Z,6.62
2022-10-05T01:43:20.315Z,6.64
2022-10-05T01:44:20.678Z,6.69
2022-10-05T01:45:20.291Z,6.69
2022-10-05T01:46:20.320Z,6.69
2022-10-05T01:47:20.281Z,6.70
2022-10-05T01:48:20.256Z,6.69
2022-10-05T01:49:20.665Z,6.71
2022-10-05T01:50:20.227Z,6.74
2022-10-05T01:51:20.206Z,6.76
2022-10-05T01:52:20.206Z,6.73
2022-10-05T01:53:20.191Z,6.69
2022-10-05T01:54:20.177Z,6.67
2022-10-05T01:55:20.574Z,6.69
2022-10-05T01:56:20.147Z,6.69
2022-10-05T01:57:20.136Z,6.64
2022-10-05T01:58:20.124Z,6.61
2022-10-05T01:59:20.484Z,6.55
2022-10-05T02:00:20.113Z,6.48
2022-10-05T02:01:20.131Z,6.37
2022-10-05T02:02:20.119Z,6.30
2022-10-05T02:03:20.059Z,6.27
2022-10-05T02:04:42.602Z,6.21
2022-10-05T02:05:21.391Z,6.22
2022-10-05T02:06:20.027Z,6.27
2022-10-05T02:07:20.007Z,6.28
2022-10-05T02:08:19.995Z,6.28
2022-10-05T02:09:20.403Z,6.30
2022-10-05T02:10:19.969Z,6.28
2022-10-05T02:11:19.964Z,6.22
2022-10-05T02:12:19.941Z,6.19
2022-10-05T02:13:19.918Z,6.14
2022-10-05T02:14:20.261Z,6.09
2022-10-05T02:15:19.910Z,6.08
2022-10-05T02:16:19.920Z,6.09
2022-10-05T02:17:19.879Z,6.15
2022-10-05T02:18:19.858Z,6.12
2022-10-05T02:19:20.278Z,6.11
2022-10-05T02:20:19.836Z,6.09
2022-10-05T02:21:19.829Z,6.06
2022-10-05T02:22:19.806Z,6.03
2022-10-05T02:23:19.815Z,6.01
2022-10-05T02:24:20.205Z,6.03
2022-10-05T02:25:19.782Z,6.04
2022-10-05T02:26:19.777Z,6.06
2022-10-05T02:27:19.746Z,6.11
2022-10-05T02:28:19.787Z,6.15
2022-10-05T02:29:20.081Z,6.19
2022-10-05T02:30:19.716Z,6.25
2022-10-05T02:31:19.743Z,6.33
2022-10-05T02:32:19.685Z,6.40
2022-10-05T02:33:19.688Z,6.46
2022-10-05T02:34:20.149Z,6.48
2022-10-05T02:35:19.653Z,6.48
2022-10-05T02:36:19.633Z,6.49
2022-10-05T02:37:19.624Z,6.48
2022-10-05T02:38:19.625Z,6.44
2022-10-05T02:39:20.471Z,6.44
2022-10-05T02:40:19.581Z,6.41
2022-10-05T02:41:19.571Z,6.41
2022-10-05T02:42:19.551Z,6.46
2022-10-05T02:43:19.542Z,6.48
2022-10-05T02:44:19.530Z,6.51
2022-10-05T02:45:19.877Z,6.54
2022-10-05T02:46:19.546Z,6.54
2022-10-05T02:47:19.500Z,6.48
2022-10-05T02:48:19.489Z,6.41
2022-10-05T02:49:19.905Z,6.40
2022-10-05T02:50:19.465Z,6.41
2022-10-05T02:51:19.447Z,6.38
2022-10-05T02:52:19.427Z,6.27
2022-10-05T02:53:19.408Z,6.17
2022-10-05T02:54:19.786Z,6.12
2022-10-05T02:55:19.396Z,6.08
2022-10-05T02:56:19.376Z,6.06
2022-10-05T02:57:19.373Z,6.01
2022-10-05T02:58:19.351Z,6.00
2022-10-05T02:59:19.783Z,5.97
2022-10-05T03:00:19.327Z,5.97
2022-10-05T03:01:19.365Z,5.94
2022-10-05T03:02:19.368Z,5.93
2022-10-05T03:03:19.293Z,5.90
2022-10-05T03:04:19.273Z,5.89
2022-10-05T03:05:19.689Z,5.86
2022-10-05T03:06:19.253Z,5.89
2022-10-05T03:07:19.236Z,5.85
2022-10-05T03:08:19.215Z,5.81
2022-10-05T03:09:19.582Z,5.75
2022-10-05T03:10:19.202Z,5.75
2022-10-05T03:11:19.182Z,5.75
2022-10-05T03:12:19.183Z,5.79
2022-10-05T03:13:19.162Z,5.83
2022-10-05T03:14:19.590Z,5.89
2022-10-05T03:15:19.141Z,5.91
2022-10-05T03:16:19.276Z,5.91
2022-10-05T03:17:19.118Z,5.94
2022-10-05T03:18:19.100Z,5.97
2022-10-05T03:19:19.520Z,5.94
2022-10-05T03:20:19.084Z,5.97
2022-10-05T03:21:19.066Z,6.00
2022-10-05T03:22:19.043Z,6.00
2022-10-05T03:23:19.029Z,5.96
2022-10-05T03:24:19.018Z,5.93
2022-10-05T03:25:19.359Z,5.94
2022-10-05T03:26:18.995Z,5.96
2022-10-05T03:27:18.990Z,5.93
2022-10-05T03:28:19.038Z,5.89
2022-10-05T03:29:19.386Z,5.81
2022-10-05T03:30:18.946Z,5.78
2022-10-05T03:31:18.989Z,5.76
2022-10-05T03:32:18.917Z,5.74
2022-10-05T03:33:18.904Z,5.74
2022-10-05T03:34:18.892Z,5.64
2022-10-05T03:35:19.310Z,5.64
2022-10-05T03:36:18.875Z,5.61
2022-10-05T03:37:18.891Z,5.61
2022-10-05T03:38:18.834Z,5.60
2022-10-05T03:39:19.198Z,5.57
2022-10-05T03:40:18.815Z,5.58
2022-10-05T03:41:18.794Z,5.57
2022-10-05T03:42:18.783Z,5.57
2022-10-05T03:43:18.793Z,5.57
2022-10-05T03:44:18.761Z,5.56
2022-10-05T03:45:19.075Z,5.51
2022-10-05T03:46:18.794Z,5.51
2022-10-05T03:47:18.731Z,5.48
2022-10-05T03:48:18.712Z,5.49
2022-10-05T03:49:19.133Z,5.54
2022-10-05T03:50:18.673Z,5.60
2022-10-05T03:51:18.681Z,5.58
2022-10-05T03:52:18.662Z,5.57
2022-10-05T03:53:18.651Z,5.54
2022-10-05T03:54:18.999Z,5.56
2022-10-05T03:55:18.621Z,5.58
2022-10-05T03:56:18.620Z,5.60
2022-10-05T03:57:18.603Z,5.67
2022-10-05T03:58:18.580Z,5.67
2022-10-05T03:59:18.987Z,5.67
2022-10-05T04:00:19.349Z,5.67
2022-10-05T04:01:18.608Z,5.71
2022-10-05T04:02:18.570Z,5.75
2022-10-05T04:03:18.518Z,5.85
2022-10-05T04:04:18.807Z,5.93
2022-10-05T04:05:18.506Z,5.94
2022-10-05T04:06:18.487Z,6.00
2022-10-05T04:07:18.467Z,6.04
2022-10-05T04:08:18.447Z,6.11
2022-10-05T04:09:18.755Z,6.17
2022-10-05T04:10:18.425Z,6.22
2022-10-05T04:11:18.405Z,6.28
2022-10-05T04:12:18.395Z,6.30
2022-10-05T04:13:18.395Z,6.30
2022-10-05T04:14:18.805Z,6.27
2022-10-05T04:15:19.117Z,6.22
2022-10-05T04:16:18.420Z,6.17
2022-10-05T04:17:18.342Z,6.17
2022-10-05T04:18:18.314Z,6.14
2022-10-05T04:19:18.663Z,6.06
2022-10-05T04:20:18.308Z,6.00
2022-10-05T04:21:22.703Z,5.94
2022-10-05T04:22:19.273Z,5.93
2022-10-05T04:23:18.257Z,5.90
2022-10-05T04:24:18.244Z,5.89
2022-10-05T04:25:18.691Z,5.83
2022-10-05T04:26:18.220Z,5.78
2022-10-05T04:27:18.213Z,5.72
2022-10-05T04:28:18.240Z,5.68
2022-10-05T04:29:18.499Z,5.68
2022-10-05T04:30:18.168Z,5.64
2022-10-05T04:31:18.195Z,5.60
2022-10-05T04:32:18.141Z,5.58
2022-10-05T04:33:18.134Z,5.57
2022-10-05T04:34:18.136Z,5.56
2022-10-05T04:35:18.098Z,5.49
2022-10-05T04:36:18.107Z,5.48
2022-10-05T04:37:18.085Z,5.43
2022-10-05T04:38:18.069Z,5.42
2022-10-05T04:39:18.414Z,5.42
2022-10-05T04:40:18.050Z,5.38
2022-10-05T04:41:18.046Z,5.39
2022-10-05T04:42:18.008Z,5.39
2022-10-05T04:43:18.008Z,5.42
2022-10-05T04:44:17.993Z,5.40
2022-10-05T04:45:17.995Z,5.36
2022-10-05T04:46:17.998Z,5.31
2022-10-05T04:47:17.956Z,5.30
2022-10-05T04:48:17.945Z,5.30
2022-10-05T04:49:18.157Z,5.25
2022-10-05T04:50:17.907Z,5.31
2022-10-05T04:51:17.894Z,5.28
2022-10-05T04:52:17.908Z,5.28
2022-10-05T04:53:17.872Z,5.31
2022-10-05T04:54:17.879Z,5.30
2022-10-05T04:55:18.073Z,5.31
2022-10-05T04:56:17.861Z,5.30
2022-10-05T04:57:17.822Z,5.28
2022-10-05T04:58:17.814Z,5.27
2022-10-05T04:59:18.133Z,5.20
2022-10-05T05:00:17.771Z,5.09
2022-10-05T05:01:17.790Z,5.02
2022-10-05T05:02:17.750Z,5.04
2022-10-05T05:03:17.744Z,5.06
2022-10-05T05:04:17.729Z,5.09
2022-10-05T05:05:18.037Z,5.12
2022-10-05T05:06:18.408Z,5.17
2022-10-05T05:07:17.678Z,5.20
2022-10-05T05:08:17.671Z,5.18
2022-10-05T05:09:17.696Z,5.18
2022-10-05T05:10:17.675Z,5.13
2022-10-05T05:11:20.064Z,5.09
2022-10-05T05:12:18.624Z,5.06
2022-10-05T05:13:17.608Z,5.00
2022-10-05T05:14:17.601Z,5.00
2022-10-05T05:15:18.004Z,5.02
2022-10-05T05:16:17.601Z,4.99
2022-10-05T05:17:17.583Z,4.91
2022-10-05T05:18:17.545Z,4.88
2022-10-05T05:19:17.635Z,4.89
2022-10-05T05:20:17.534Z,4.89
2022-10-05T05:21:17.514Z,4.91
2022-10-05T05:22:17.506Z,4.92
2022-10-05T05:23:17.503Z,4.97
2022-10-05T05:24:17.492Z,5.03
2022-10-05T05:25:17.864Z,5.07
2022-10-05T05:26:17.455Z,5.10
2022-10-05T05:27:17.433Z,5.12
2022-10-05T05:28:17.537Z,5.15
2022-10-05T05:29:17.863Z,5.18
2022-10-05T05:30:17.391Z,5.20
2022-10-05T05:31:17.476Z,5.20
2022-10-05T05:32:17.363Z,5.24
2022-10-05T05:33:17.352Z,5.25
2022-10-05T05:34:17.660Z,5.28
2022-10-05T05:35:17.349Z,5.30
2022-10-05T05:36:22.171Z,5.31
2022-10-05T05:37:18.320Z,5.27
2022-10-05T05:38:17.297Z,5.22
2022-10-05T05:39:17.583Z,5.21
2022-10-05T05:40:17.259Z,5.20
2022-10-05T05:41:17.254Z,5.24
2022-10-05T05:42:17.229Z,5.25
2022-10-05T05:43:17.243Z,5.24
2022-10-05T05:44:17.210Z,5.27
2022-10-05T05:45:17.640Z,5.31
2022-10-05T05:46:17.282Z,5.35
2022-10-05T05:47:17.250Z,5.35
2022-10-05T05:48:17.451Z,5.35
2022-10-05T05:49:17.578Z,5.31
2022-10-05T05:50:17.137Z,5.30
2022-10-05T05:51:17.125Z,5.28
2022-10-05T05:52:17.129Z,5.30
2022-10-05T05:53:17.123Z,5.33
2022-10-05T05:54:17.424Z,5.39
2022-10-05T05:55:17.078Z,5.43
2022-10-05T05:56:17.106Z,5.51
2022-10-05T05:57:17.051Z,5.60
2022-10-05T05:58:17.038Z,5.64
2022-10-05T05:59:17.478Z,5.68
2022-10-05T06:00:17.002Z,5.71
2022-10-05T06:01:32.225Z,5.68
2022-10-05T06:02:18.025Z,5.68
2022-10-05T06:03:17.091Z,5.72
2022-10-05T06:04:17.292Z,5.76
2022-10-05T06:05:16.941Z,5.93
2022-10-05T06:06:16.920Z,6.14
2022-10-05T06:07:16.919Z,6.37
2022-10-05T06:08:16.898Z,6.62
2022-10-05T06:09:17.347Z,6.94
2022-10-05T06:10:16.878Z,7.16
2022-10-05T06:11:16.893Z,7.23
2022-10-05T06:12:16.839Z,7.25
2022-10-05T06:13:16.829Z,7.31
2022-10-05T06:14:16.895Z,7.37
2022-10-05T06:15:16.874Z,7.48
2022-10-05T06:16:16.839Z,7.72
2022-10-05T06:17:16.803Z,8.00
2022-10-05T06:18:16.789Z,8.12
2022-10-05T06:19:16.801Z,8.29
2022-10-05T06:20:16.757Z,8.52
2022-10-05T06:21:16.807Z,8.66
2022-10-05T06:22:16.749Z,8.84
2022-10-05T06:23:16.707Z,9.04
2022-10-05T06:24:16.834Z,9.15
2022-10-05T06:25:17.134Z,9.35
2022-10-05T06:26:16.680Z,9.47
2022-10-05T06:27:16.683Z,9.57
2022-10-05T06:28:16.766Z,9.68
2022-10-05T06:29:17.029Z,9.71
2022-10-05T06:30:16.624Z,9.64
2022-10-05T06:31:16.632Z,9.56
2022-10-05T06:32:16.600Z,9.56
2022-10-05T06:33:16.585Z,9.68
2022-10-05T06:34:16.563Z,9.76
2022-10-05T06:35:16.984Z,9.87
2022-10-05T06:36:16.814Z,10.22
2022-10-05T06:37:16.537Z,10.38
2022-10-05T06:38:16.518Z,10.26
2022-10-05T06:39:16.923Z,10.15
2022-10-05T06:40:16.744Z,10.09
2022-10-05T06:41:16.490Z,10.18
2022-10-05T06:42:16.473Z,10.22
2022-10-05T06:43:16.441Z,10.11
2022-10-05T06:44:16.469Z,10.05
2022-10-05T06:45:16.451Z,10.07
2022-10-05T06:46:16.457Z,10.07
2022-10-05T06:47:16.395Z,10.04
2022-10-05T06:48:16.389Z,10.05
2022-10-05T06:49:16.407Z,10.09
2022-10-05T06:50:16.362Z,10.32
2022-10-05T06:51:16.340Z,10.51
2022-10-05T06:52:16.341Z,10.61
2022-10-05T06:53:16.312Z,10.59
2022-10-05T06:54:16.299Z,10.63
2022-10-05T06:55:16.328Z,10.81
2022-10-05T06:56:16.268Z,10.91
2022-10-05T06:57:16.269Z,11.10
2022-10-05T06:58:16.249Z,11.24
2022-10-05T06:59:16.532Z,11.24
2022-10-05T07:00:16.226Z,11.22
2022-10-05T07:01:16.333Z,11.46
2022-10-05T07:02:16.331Z,11.86
2022-10-05T07:03:16.189Z,12.19
2022-10-05T07:04:16.529Z,12.20
2022-10-05T07:05:16.160Z,12.35
2022-10-05T07:06:16.145Z,12.52
2022-10-05T07:07:16.138Z,12.70
2022-10-05T07:08:16.130Z,13.00
2022-10-05T07:09:16.166Z,13.12
2022-10-05T07:10:16.088Z,13.19
2022-10-05T07:11:16.069Z,13.15
2022-10-05T07:12:16.077Z,13.22
2022-10-05T07:13:16.050Z,13.29
2022-10-05T07:14:16.057Z,13.32
2022-10-05T07:15:16.017Z,13.36
2022-10-05T07:16:16.055Z,13.20
2022-10-05T07:17:15.992Z,13.00
2022-10-05T07:18:15.980Z,12.95
2022-10-05T07:19:16.408Z,12.95
2022-10-05T07:20:15.958Z,13.04
2022-10-05T07:21:15.949Z,13.22
2022-10-05T07:22:15.939Z,13.41
2022-10-05T07:23:15.925Z,13.55
2022-10-05T07:24:16.356Z,13.60
2022-10-05T07:25:15.896Z,13.67
2022-10-05T07:26:15.885Z,13.84
2022-10-05T07:27:15.876Z,13.95
2022-10-05T07:28:15.908Z,13.97
2022-10-05T07:29:16.274Z,13.78
2022-10-05T07:30:15.975Z,13.81
2022-10-05T07:31:15.868Z,13.89
2022-10-05T07:32:15.815Z,13.89
2022-10-05T07:33:15.775Z,13.77
2022-10-05T07:34:15.772Z,13.79
2022-10-05T07:35:16.195Z,13.95
2022-10-05T07:36:15.735Z,13.88
2022-10-05T07:37:15.731Z,13.78
2022-10-05T07:38:15.725Z,13.69
2022-10-05T07:39:16.064Z,13.73
2022-10-05T07:40:15.736Z,13.78
2022-10-05T07:41:15.676Z,13.85
2022-10-05T07:42:15.672Z,13.97
2022-10-05T07:43:15.674Z,14.18
2022-10-05T07:44:15.643Z,14.32
2022-10-05T07:45:16.514Z,14.25
2022-10-05T07:46:15.746Z,14.07
2022-10-05T07:47:15.618Z,14.04
2022-10-05T07:48:15.583Z,14.09
2022-10-05T07:49:16.145Z,14.25
2022-10-05T07:50:15.689Z,14.32
2022-10-05T07:51:15.582Z,14.43
2022-10-05T07:52:15.535Z,14.75
2022-10-05T07:53:15.512Z,14.98
2022-10-05T07:54:15.516Z,14.83
2022-10-05T07:55:15.862Z,14.54
2022-10-05T07:56:15.494Z,14.47
2022-10-05T07:57:15.504Z,14.32
2022-10-05T07:58:15.471Z,14.03
2022-10-05T07:59:15.442Z,13.77
2022-10-05T08:00:15.879Z,13.60
2022-10-05T08:01:15.433Z,13.46
2022-10-05T08:02:15.513Z,13.30
2022-10-05T08:03:15.433Z,13.23
2022-10-05T08:04:15.382Z,13.23
2022-10-05T08:05:15.790Z,13.20
2022-10-05T08:06:15.371Z,13.15
2022-10-05T08:07:15.357Z,13.15
2022-10-05T08:08:16.842Z,13.10
2022-10-05T08:09:15.310Z,13.04
2022-10-05T08:10:15.620Z,12.97
2022-10-05T08:11:15.298Z,12.86
2022-10-05T08:12:15.281Z,12.85
2022-10-05T08:13:15.273Z,12.82
2022-10-05T08:14:15.240Z,12.82
2022-10-05T08:15:15.621Z,12.75
2022-10-05T08:16:15.254Z,12.68
2022-10-05T08:17:15.200Z,12.65
2022-10-05T08:18:15.189Z,12.56
2022-10-05T08:19:15.184Z,12.49
2022-10-05T08:20:15.599Z,12.46
2022-10-05T08:21:15.149Z,12.42
2022-10-05T08:22:15.135Z,12.39
2022-10-05T08:23:15.129Z,12.45
2022-10-05T08:24:15.118Z,12.49
2022-10-05T08:25:15.541Z,12.52
2022-10-05T08:26:15.102Z,12.59
2022-10-05T08:27:15.069Z,12.70
2022-10-05T08:28:15.124Z,12.77
2022-10-05T08:29:15.049Z,12.86
2022-10-05T08:30:15.345Z,12.93
2022-10-05T08:31:15.156Z,13.04
2022-10-05T08:32:15.008Z,13.12
2022-10-05T08:33:15.017Z,13.12
2022-10-05T08:34:14.985Z,13.20
2022-10-05T08:35:15.007Z,13.30
2022-10-05T08:36:14.955Z,13.38
2022-10-05T08:37:14.936Z,13.42
2022-10-05T08:38:14.935Z,13.48
2022-10-05T08:39:14.963Z,13.55
2022-10-05T08:40:14.942Z,13.63
2022-10-05T08:41:14.884Z,13.71
2022-10-05T08:42:14.875Z,13.79
2022-10-05T08:43:14.914Z,13.87
2022-10-05T08:44:14.854Z,13.97
2022-10-05T08:45:14.873Z,13.97
2022-10-05T08:46:14.868Z,13.92
2022-10-05T08:47:14.802Z,13.97
2022-10-05T08:48:14.801Z,14.02
2022-10-05T08:49:14.854Z,13.99
2022-10-05T08:50:14.803Z,14.09
2022-10-05T08:51:14.763Z,14.18
2022-10-05T08:52:14.756Z,14.25
2022-10-05T08:53:14.731Z,14.28
2022-10-05T08:54:14.723Z,14.36
2022-10-05T08:55:15.048Z,14.47
2022-10-05T08:56:19.721Z,14.55
2022-10-05T08:57:15.681Z,14.60
2022-10-05T08:58:14.739Z,14.69
2022-10-05T08:59:14.670Z,14.75
2022-10-05T09:00:15.062Z,14.80
2022-10-05T09:01:14.648Z,14.83
2022-10-05T09:02:14.669Z,14.89
2022-10-05T09:03:14.591Z,14.92
2022-10-05T09:04:14.596Z,14.92
2022-10-05T09:05:14.910Z,14.89
2022-10-05T09:06:14.579Z,14.86
2022-10-05T09:07:14.569Z,14.92
2022-10-05T09:08:14.530Z,15.02
2022-10-05T09:09:14.522Z,15.07
2022-10-05T09:10:14.916Z,15.10
2022-10-05T09:11:14.492Z,15.14
2022-10-05T09:12:14.490Z,15.20
2022-10-05T09:13:14.471Z,15.20
2022-10-05T09:14:14.459Z,15.27
2022-10-05T09:15:25.511Z,15.34
2022-10-05T09:16:15.469Z,15.39
2022-10-05T09:17:14.410Z,15.44
2022-10-05T09:18:14.560Z,15.41
2022-10-05T09:19:14.378Z,15.41
2022-10-05T09:20:14.778Z,15.36
2022-10-05T09:21:14.374Z,15.35
2022-10-05T09:22:14.348Z,15.35
2022-10-05T09:23:14.338Z,15.41
2022-10-05T09:24:14.319Z,15.44
2022-10-05T09:25:14.657Z,15.44
2022-10-05T09:26:14.295Z,15.36
2022-10-05T09:27:14.278Z,15.34
2022-10-05T09:28:14.321Z,15.36
2022-10-05T09:29:14.257Z,15.39
2022-10-05T09:30:14.246Z,15.47
2022-10-05T09:31:14.617Z,15.50
2022-10-05T09:32:16.345Z,15.50
2022-10-05T09:33:14.196Z,15.56
2022-10-05T09:34:14.187Z,15.65
2022-10-05T09:35:14.187Z,15.71
2022-10-05T09:36:14.606Z,15.71
2022-10-05T09:37:14.156Z,15.71
2022-10-05T09:38:14.143Z,15.78
2022-10-05T09:39:14.123Z,15.87
2022-10-05T09:40:14.121Z,15.90
2022-10-05T09:41:14.397Z,15.96
2022-10-05T09:42:14.105Z,15.97
2022-10-05T09:43:14.074Z,16.07
2022-10-05T09:44:14.053Z,16.15
2022-10-05T09:45:16.603Z,16.20
2022-10-05T09:46:15.526Z,16.21
2022-10-05T09:47:14.035Z,16.24
2022-10-05T09:48:14.005Z,16.33
2022-10-05T09:49:13.984Z,16.41
2022-10-05T09:50:13.982Z,16.49
2022-10-05T09:51:14.332Z,16.50
2022-10-05T09:52:20.979Z,16.48
2022-10-05T09:53:13.979Z,16.56
2022-10-05T09:54:13.987Z,16.61
2022-10-05T09:55:13.907Z,16.67
2022-10-05T09:56:14.429Z,16.71
2022-10-05T09:57:13.887Z,16.73
2022-10-05T09:58:14.047Z,16.78
2022-10-05T09:59:13.926Z,16.82
2022-10-05T10:00:13.851Z,16.89
2022-10-05T10:01:29.180Z,17.01
2022-10-05T10:02:14.933Z,17.06
2022-10-05T10:03:20.892Z,17.11
2022-10-05T10:04:13.858Z,17.21
2022-10-05T10:05:13.802Z,17.22
2022-10-05T10:06:14.211Z,17.21
2022-10-05T10:07:13.754Z,17.26
2022-10-05T10:08:13.768Z,17.36
2022-10-05T10:09:13.722Z,17.40
2022-10-05T10:10:13.713Z,17.51
2022-10-05T10:11:13.733Z,17.56
2022-10-05T10:12:13.720Z,17.63
2022-10-05T10:13:13.670Z,17.70
2022-10-05T10:14:13.663Z,17.78
2022-10-05T10:15:13.664Z,17.84
2022-10-05T10:16:13.752Z,17.84
2022-10-05T10:17:13.972Z,17.79
2022-10-05T10:18:13.589Z,17.81
2022-10-05T10:19:13.582Z,17.89
2022-10-05T10:20:13.570Z,17.99
2022-10-05T10:21:13.579Z,18.07
2022-10-05T10:22:13.852Z,18.14
2022-10-05T10:23:13.547Z,18.20
2022-10-05T10:24:13.511Z,18.26
2022-10-05T10:25:13.510Z,18.29
2022-10-05T10:26:13.493Z,18.36
2022-10-05T10:27:13.840Z,18.44
2022-10-05T10:28:13.518Z,18.51
2022-10-05T10:29:13.489Z,18.54
2022-10-05T10:30:13.441Z,18.55
2022-10-05T10:31:13.456Z,18.62
2022-10-05T10:32:13.707Z,18.70
2022-10-05T10:33:13.401Z,18.76
2022-10-05T10:34:13.389Z,18.82
2022-10-05T10:35:13.370Z,18.85
2022-10-05T10:36:13.370Z,18.91
2022-10-05T10:37:13.689Z,18.99
2022-10-05T10:38:13.347Z,19.08
2022-10-05T10:39:13.333Z,19.18
2022-10-05T10:40:13.307Z,19.26
2022-10-05T10:41:13.502Z,19.33
2022-10-05T10:42:13.727Z,19.36
2022-10-05T10:43:13.259Z,19.41
2022-10-05T10:44:13.247Z,19.43
2022-10-05T10:45:13.301Z,19.46
2022-10-05T10:46:13.278Z,19.50
2022-10-05T10:47:13.646Z,19.54
2022-10-05T10:48:13.209Z,19.61
2022-10-05T10:49:13.177Z,19.69
2022-10-05T10:50:13.166Z,19.73
2022-10-05T10:51:13.156Z,19.73
2022-10-05T10:52:13.506Z,19.76
2022-10-05T10:53:13.125Z,19.74
2022-10-05T10:54:13.116Z,19.73
2022-10-05T10:55:13.106Z,19.74
2022-10-05T10:56:13.095Z,19.80
2022-10-05T10:57:13.507Z,19.88
2022-10-05T10:58:16.097Z,19.95
2022-10-05T10:59:13.053Z,19.92
2022-10-05T11:00:13.045Z,19.94
2022-10-05T11:01:13.051Z,19.96
2022-10-05T11:02:13.036Z,19.99
2022-10-05T11:03:13.529Z,20.08
2022-10-05T11:04:12.977Z,20.16
2022-10-05T11:05:12.997Z,20.21
2022-10-05T11:06:12.966Z,20.23
2022-10-05T11:07:12.957Z,20.24
2022-10-05T11:08:13.388Z,20.33
2022-10-05T11:09:12.947Z,20.38
2022-10-05T11:10:12.925Z,20.39
2022-10-05T11:11:12.896Z,20.39
2022-10-05T11:12:12.893Z,20.47
2022-10-05T11:13:13.260Z,20.55
2022-10-05T11:14:12.856Z,20.62
2022-10-05T11:15:12.845Z,20.66
2022-10-05T11:16:15.840Z,20.72
2022-10-05T11:17:13.827Z,20.76
2022-10-05T11:18:13.246Z,20.77
2022-10-05T11:19:12.795Z,20.82
2022-10-05T11:20:12.785Z,20.85
2022-10-05T11:21:12.796Z,20.91
2022-10-05T11:22:12.759Z,20.97
2022-10-05T11:23:13.185Z,21.06
2022-10-05T11:24:12.734Z,21.03
2022-10-05T11:25:12.731Z,21.03
2022-10-05T11:26:12.707Z,21.12
2022-10-05T11:27:12.738Z,21.21
2022-10-05T11:28:13.209Z,21.28
2022-10-05T11:29:16.634Z,21.29
2022-10-05T11:30:12.646Z,21.37
2022-10-05T11:31:12.697Z,21.47
2022-10-05T11:32:12.626Z,21.54
2022-10-05T11:33:12.934Z,21.62
2022-10-05T11:34:12.602Z,21.72
2022-10-05T11:35:12.583Z,21.77
2022-10-05T11:36:12.573Z,21.77
2022-10-05T11:37:12.563Z,21.83
2022-10-05T11:38:12.572Z,21.91
2022-10-05T11:39:12.953Z,21.94
2022-10-05T11:40:12.524Z,22.05
2022-10-05T11:41:12.533Z,22.15
2022-10-05T11:42:12.503Z,22.12
2022-10-05T11:43:12.484Z,22.09
2022-10-05T11:44:12.493Z,22.17
2022-10-05T11:45:12.462Z,22.12
2022-10-05T11:46:12.502Z,22.15
2022-10-05T11:47:12.431Z,22.21
2022-10-05T11:48:12.414Z,22.27
2022-10-05T11:49:12.436Z,22.37
2022-10-05T11:50:12.392Z,22.42
2022-10-05T11:51:12.391Z,22.45
2022-10-05T11:52:12.366Z,22.46
2022-10-05T11:53:12.352Z,22.57
2022-10-05T11:54:12.633Z,22.65
2022-10-05T11:55:12.474Z,22.73
2022-10-05T11:56:12.310Z,22.76
2022-10-05T11:57:12.291Z,22.82
2022-10-05T11:58:12.285Z,22.86
2022-10-05T11:59:19.692Z,22.83
2022-10-05T12:00:19.539Z,22.86
2022-10-05T12:01:19.249Z,22.94
2022-10-05T12:02:19.223Z,22.98
2022-10-05T12:03:19.344Z,22.97
2022-10-05T12:04:12.621Z,23.02
2022-10-05T12:05:20.193Z,23.05
2022-10-05T12:06:20.202Z,23.15
2022-10-05T12:07:19.176Z,23.17
2022-10-05T12:08:19.152Z,23.20
2022-10-05T12:09:19.586Z,23.16
2022-10-05T12:10:12.102Z,23.25
2022-10-05T12:11:19.116Z,23.25
2022-10-05T12:12:12.083Z,23.23
2022-10-05T12:13:19.086Z,23.20
2022-10-05T12:14:19.112Z,23.19
2022-10-05T12:15:19.070Z,23.27
2022-10-05T12:16:19.111Z,23.33
2022-10-05T12:17:20.064Z,23.39
2022-10-05T12:18:19.018Z,23.39
2022-10-05T12:19:19.037Z,23.38
2022-10-05T12:20:18.982Z,23.46
2022-10-05T12:21:18.970Z,23.53
2022-10-05T12:22:18.965Z,23.58
2022-10-05T12:23:18.956Z,23.54
2022-10-05T12:24:22.248Z,23.57
2022-10-05T12:26:22.126Z,23.63
2022-10-05T12:27:29.086Z,23.65
2022-10-05T12:28:22.138Z,23.66
2022-10-05T12:29:22.501Z,23.65
2022-10-05T12:30:22.050Z,23.54
2022-10-05T12:31:22.066Z,23.58
2022-10-05T12:32:22.129Z,23.60
2022-10-05T12:33:22.006Z,23.66
2022-10-05T12:34:22.398Z,23.73
2022-10-05T12:35:43.619Z,23.80
2022-10-05T12:36:22.976Z,23.88
2022-10-05T12:37:21.964Z,23.87
2022-10-05T12:38:21.976Z,23.98
2022-10-05T12:39:22.307Z,24.08
2022-10-05T12:40:21.966Z,24.18
2022-10-05T12:41:21.916Z,24.21
2022-10-05T12:42:21.903Z,24.21
2022-10-05T12:43:21.886Z,24.15
2022-10-05T12:44:22.306Z,24.12
2022-10-05T12:45:21.859Z,24.15
2022-10-05T12:46:21.847Z,24.25
2022-10-05T12:47:21.828Z,24.25
2022-10-05T12:48:21.834Z,24.28
2022-10-05T12:49:22.249Z,24.22
2022-10-05T12:50:21.827Z,24.27
2022-10-05T12:51:21.788Z,24.30
2022-10-05T12:52:21.772Z,24.31
2022-10-05T12:53:21.763Z,24.31
2022-10-05T12:54:21.774Z,24.40
2022-10-05T12:55:21.731Z,24.49
2022-10-05T12:56:21.998Z,24.58
2022-10-05T12:57:21.725Z,24.60
2022-10-05T12:58:21.705Z,24.60
2022-10-05T12:59:22.104Z,24.65
2022-10-05T13:00:23.211Z,24.67
2022-10-05T13:01:21.714Z,24.65
2022-10-05T13:02:21.681Z,24.64
2022-10-05T13:03:21.624Z,24.61
2022-10-05T13:04:22.055Z,24.68
2022-10-05T13:05:21.604Z,24.67
2022-10-05T13:06:21.611Z,24.64